Time;durP1;ratioP1;P1;durP2;ratioP2;P2;SDS_P1;SDS_P2;PMS_P1;PMS_P2;Temp;Humidity;BMP_temperature;BMP_pressure;BME280_temperature;BME280_humidity;BME280_pressure;Samples;Min_cycle;Max_cycle;Signal;HPM_P1;HPM_P2
2022/05/18 00:00:23;;;;;;;2.80;2.33;;;;;;;17.13;57.36;93754.59;4973341;28;20084;-76
2022/05/18 00:02:49;;;;;;;4.00;2.70;;;;;;;16.98;58.03;93739.31;4971913;28;20069;-74
2022/05/18 00:05:15;;;;;;;3.65;2.90;;;;;;;16.91;57.44;93723.06;4969474;28;20030;-76
2022/05/18 00:07:40;;;;;;;3.83;2.78;;;;;;;16.92;57.78;93729.97;4970831;28;20045;-75
2022/05/18 00:10:06;;;;;;;5.45;3.72;;;;;;;17.01;57.50;93730.53;4975303;28;20049;-74
2022/05/18 00:12:32;;;;;;;3.80;3.10;;;;;;;17.16;57.38;93740.44;4967410;28;20046;-77
2022/05/18 00:14:58;;;;;;;4.63;3.40;;;;;;;17.15;57.71;93732.75;4977545;28;20026;-75
2022/05/18 00:17:24;;;;;;;4.15;3.55;;;;;;;17.21;56.94;93741.31;4969913;28;20034;-76
2022/05/18 00:19:49;;;;;;;3.60;3.10;;;;;;;17.12;56.78;93734.19;4974418;28;20046;-73
2022/05/18 00:22:14;;;;;;;5.00;3.95;;;;;;;16.94;57.76;93726.94;4972252;28;20125;-75
2022/05/18 00:24:40;;;;;;;4.30;3.67;;;;;;;16.92;57.41;93738.03;4980613;28;20046;-76
2022/05/18 00:27:06;;;;;;;5.10;3.47;;;;;;;16.86;57.95;93723.34;4972016;28;20096;-77
2022/05/18 00:29:32;;;;;;;5.00;3.92;;;;;;;16.90;57.24;93708.09;4970063;28;20033;-76
2022/05/18 00:31:57;;;;;;;4.88;3.65;;;;;;;17.01;56.63;93721.72;4974888;28;20357;-77
2022/05/18 00:34:23;;;;;;;4.45;3.85;;;;;;;17.01;56.51;93709.03;4973204;28;20363;-76
2022/05/18 00:36:49;;;;;;;4.05;3.63;;;;;;;17.12;56.25;93728.81;4969414;28;20436;-76
2022/05/18 00:39:14;;;;;;;6.93;3.80;;;;;;;17.24;56.68;93748.66;4974344;28;20070;-76
2022/05/18 00:41:40;;;;;;;4.40;3.67;;;;;;;17.23;55.94;93745.19;4972323;28;20145;-76
2022/05/18 00:44:05;;;;;;;4.20;3.42;;;;;;;17.19;55.93;93749.72;4972759;28;20116;-75
2022/05/18 00:46:31;;;;;;;3.45;2.95;;;;;;;17.02;55.81;93740.16;4976425;28;20073;-76
2022/05/18 00:48:57;;;;;;;3.58;2.60;;;;;;;17.00;56.17;93737.06;4970111;28;20058;-76
2022/05/18 00:51:33;;;;;;;4.70;2.92;;;;;;;17.14;55.47;93750.00;4974594;28;20042;-76
2022/05/18 00:54:05;;;;;;;4.50;2.58;;;;;;;17.06;55.56;93756.34;4968579;28;20034;-76
2022/05/18 00:56:42;;;;;;;4.57;2.75;;;;;;;16.94;55.95;93759.19;4975978;28;20022;-76
2022/05/18 00:59:29;;;;;;;2.25;2.05;;;;;;;16.89;55.97;93754.88;4974400;28;20038;-76
2022/05/18 01:01:56;;;;;;;4.00;3.05;;;;;;;16.86;55.46;93758.28;4974761;28;20047;-76
2022/05/18 01:04:25;;;;;;;3.97;2.88;;;;;;;16.71;56.12;93745.69;4964809;28;21831;-76
2022/05/18 01:06:58;;;;;;;2.53;2.33;;;;;;;16.39;56.46;93694.00;4975990;28;20038;-76
2022/05/18 01:09:37;;;;;;;3.20;2.90;;;;;;;16.83;56.27;93758.97;4971218;28;20507;-76
2022/05/18 01:12:04;;;;;;;2.72;2.45;;;;;;;16.81;55.80;93749.72;4969451;28;20062;-76
2022/05/18 01:14:34;;;;;;;2.78;2.53;;;;;;;16.50;56.35;93742.53;4970634;28;20018;-75
2022/05/18 01:17:00;;;;;;;3.47;2.45;;;;;;;16.37;57.22;93735.75;4971128;28;20046;-77
2022/05/18 01:19:46;;;;;;;3.42;2.20;;;;;;;16.40;57.35;93745.78;4976283;28;20038;-76
2022/05/18 01:22:31;;;;;;;3.50;2.83;;;;;;;16.23;57.96;93739.63;4978364;28;20074;-76
2022/05/18 01:25:12;;;;;;;3.15;2.78;;;;;;;16.28;58.37;93739.38;4975472;28;20058;-76
2022/05/18 01:27:37;;;;;;;3.72;2.90;;;;;;;16.27;58.38;93737.84;4970854;28;20046;-75
2022/05/18 01:30:06;;;;;;;2.70;2.35;;;;;;;16.23;58.95;93734.28;4971376;28;20044;-75
2022/05/18 01:32:42;;;;;;;3.13;2.80;;;;;;;16.19;59.53;93735.31;4973070;28;20046;-74
2022/05/18 01:35:10;;;;;;;9.63;3.15;;;;;;;16.24;59.92;93733.16;4976212;28;20107;-76
2022/05/18 01:37:36;;;;;;;4.88;2.65;;;;;;;16.26;59.39;93725.53;4972156;28;20125;-76
2022/05/18 01:40:18;;;;;;;2.92;2.63;;;;;;;16.18;59.02;93712.31;4978039;28;20087;-76
2022/05/18 01:42:52;;;;;;;3.45;2.78;;;;;;;16.06;59.63;93720.47;4975364;28;20034;-76
2022/05/18 01:45:17;;;;;;;2.70;2.40;;;;;;;16.14;59.93;93728.31;4974205;28;20072;-76
2022/05/18 01:47:43;;;;;;;3.10;2.53;;;;;;;16.13;59.68;93709.91;4970317;28;20137;-76
2022/05/18 01:50:12;;;;;;;2.75;2.00;;;;;;;16.28;58.24;93717.16;4972544;28;20431;-76
2022/05/18 01:52:38;;;;;;;2.33;2.03;;;;;;;16.14;57.36;93712.22;4972329;28;20719;-76
2022/05/18 01:55:05;;;;;;;2.58;2.30;;;;;;;16.00;58.30;93714.59;4968888;28;20037;-76
2022/05/18 01:57:33;;;;;;;2.70;2.50;;;;;;;16.01;58.44;93708.09;4973598;28;20157;-76
2022/05/18 01:59:58;;;;;;;2.72;2.25;;;;;;;15.97;59.54;93706.47;4974208;28;20034;-74
2022/05/18 02:02:24;;;;;;;2.95;2.35;;;;;;;16.11;58.64;93707.56;4976873;28;20023;-76
2022/05/18 02:04:49;;;;;;;2.63;1.92;;;;;;;15.92;58.58;93678.03;4975749;28;20129;-76
2022/05/18 02:07:15;;;;;;;3.40;1.70;;;;;;;15.97;57.78;93690.38;4977417;28;20049;-76
2022/05/18 02:09:42;;;;;;;3.30;2.30;;;;;;;16.05;57.16;93708.97;4968644;28;22368;-76
2022/05/18 02:12:09;;;;;;;4.68;1.85;;;;;;;16.22;57.21;93708.59;4974389;28;20026;-76
2022/05/18 02:14:35;;;;;;;2.22;1.95;;;;;;;16.26;56.87;93720.16;4968075;28;21459;-76
2022/05/18 02:17:00;;;;;;;2.40;1.50;;;;;;;16.27;55.19;93719.06;4972858;28;20496;-76
2022/05/18 02:19:26;;;;;;;6.80;1.77;;;;;;;16.31;55.40;93711.88;4970053;28;20026;-75
2022/05/18 02:21:51;;;;;;;1.75;1.20;;;;;;;15.88;55.19;93671.81;4973676;28;20046;-75
2022/05/18 02:24:17;;;;;;;1.70;1.48;;;;;;;15.99;55.73;93704.97;4974894;28;20028;-75
2022/05/18 02:26:42;;;;;;;3.00;1.60;;;;;;;15.92;55.94;93698.69;4992300;28;20438;-74
2022/05/18 02:29:08;;;;;;;3.22;1.80;;;;;;;15.83;56.57;93701.56;4992212;28;20038;-75
2022/05/18 02:31:33;;;;;;;4.90;2.80;;;;;;;15.57;56.91;93661.13;4997923;28;20410;-75
2022/05/18 02:33:59;;;;;;;4.70;3.28;;;;;;;15.84;56.57;93703.13;4989382;28;20107;-74
2022/05/18 02:36:26;;;;;;;6.15;4.05;;;;;;;15.69;58.00;93702.03;4992931;28;20320;-74
2022/05/18 02:38:52;;;;;;;7.20;4.38;;;;;;;15.69;57.59;93693.19;4993430;28;20014;-75
2022/05/18 02:41:18;;;;;;;6.40;4.18;;;;;;;15.65;58.39;93684.28;4993272;28;20104;-75
2022/05/18 02:43:43;;;;;;;9.07;4.47;;;;;;;15.57;59.60;93677.19;4979749;28;20062;-76
2022/05/18 02:46:10;;;;;;;4.43;3.45;;;;;;;15.89;58.58;93700.94;4976795;28;20046;-75
2022/05/18 02:48:36;;;;;;;6.88;4.50;;;;;;;15.65;58.61;93695.78;4972380;28;20038;-76
2022/05/18 02:51:03;;;;;;;5.70;3.78;;;;;;;15.85;58.76;93704.66;4976625;28;20080;-75
2022/05/18 02:53:28;;;;;;;6.22;3.83;;;;;;;15.94;58.54;93701.81;4994790;28;20454;-74
2022/05/18 02:56:05;;;;;;;7.22;4.57;;;;;;;15.92;58.91;93698.69;4990815;28;20072;-74
2022/05/18 02:58:42;;;;;;;6.90;3.80;;;;;;;15.84;58.34;93703.88;4992844;28;20033;-74
2022/05/18 03:01:13;;;;;;;7.28;4.55;;;;;;;15.60;58.49;93692.56;4995174;28;20038;-75
2022/05/18 03:03:39;;;;;;;5.95;3.53;;;;;;;15.60;59.63;93712.13;4994878;28;20043;-75
2022/05/18 03:06:07;;;;;;;4.40;3.88;;;;;;;15.57;60.26;93709.38;4993009;28;20034;-76
2022/05/18 03:08:35;;;;;;;6.38;3.63;;;;;;;15.59;59.75;93705.22;5010051;28;20030;-74
2022/05/18 03:11:00;;;;;;;6.43;3.55;;;;;;;15.27;61.31;93685.66;4993880;28;20053;-74
2022/05/18 03:13:25;;;;;;;4.60;3.45;;;;;;;15.43;61.32;93723.94;4989788;28;20057;-74
2022/05/18 03:15:51;;;;;;;6.35;3.88;;;;;;;15.35;61.59;93727.56;4995800;28;20034;-75
2022/05/18 03:18:16;;;;;;;6.00;4.35;;;;;;;15.28;62.03;93713.22;4992221;28;20028;-75
2022/05/18 03:23:36;;;;;;;6.93;3.92;;;;;;;15.45;61.69;93712.91;4977483;28;20617;-74
2022/05/18 03:26:09;;;;;;;5.68;3.90;;;;;;;15.59;60.93;93723.22;4964459;28;20133;-75
2022/05/18 03:28:39;;;;;;;4.35;3.17;;;;;;;15.59;60.04;93733.94;4972988;28;20410;-75
2022/05/18 03:31:06;;;;;;;4.38;3.20;;;;;;;15.46;60.52;93717.91;4971149;28;20042;-75
2022/05/18 03:33:32;;;;;;;4.63;3.25;;;;;;;15.51;60.35;93722.25;4971171;28;20038;-73
2022/05/18 03:35:57;;;;;;;8.98;4.07;;;;;;;15.57;60.68;93730.81;4967640;28;20033;-75
2022/05/18 03:38:23;;;;;;;4.15;3.45;;;;;;;15.69;60.74;93733.41;4995914;28;20761;-75
2022/05/18 03:40:49;;;;;;;6.00;3.50;;;;;;;15.63;60.72;93735.56;4983892;28;20393;-75
2022/05/18 03:43:15;;;;;;;5.55;3.33;;;;;;;15.74;60.18;93743.88;4995565;28;20394;-77
2022/05/18 03:45:41;;;;;;;5.90;3.47;;;;;;;15.46;60.87;93728.63;4991448;28;20041;-76
2022/05/18 03:48:07;;;;;;;6.50;3.40;;;;;;;15.56;60.91;93742.66;4996384;28;20127;-76
2022/05/18 03:50:33;;;;;;;4.90;4.00;;;;;;;15.50;62.32;93754.78;4991744;28;20076;-74
2022/05/18 03:53:00;;;;;;;9.65;4.88;;;;;;;15.58;61.23;93745.78;5001299;28;20037;-74
2022/05/18 03:55:26;;;;;;;5.75;4.90;;;;;;;15.68;61.33;93747.94;4994741;28;20026;-76
2022/05/18 03:57:52;;;;;;;8.25;5.40;;;;;;;15.64;61.65;93736.34;4987672;28;20524;-77
2022/05/18 04:00:18;;;;;;;8.25;4.38;;;;;;;15.98;60.15;93756.31;4979357;28;21119;-77
2022/05/18 04:02:44;;;;;;;5.47;3.90;;;;;;;15.87;59.68;93734.59;4976545;28;20022;-74
2022/05/18 04:05:10;;;;;;;5.28;3.50;;;;;;;15.99;59.55;93755.94;4971978;28;20026;-75
2022/05/18 04:07:36;;;;;;;5.75;4.30;;;;;;;15.98;60.29;93757.09;4972313;28;20038;-76
2022/05/18 04:10:03;;;;;;;6.97;3.53;;;;;;;15.96;59.66;93755.88;4977051;28;20101;-76
2022/05/18 04:12:28;;;;;;;5.03;3.88;;;;;;;15.89;59.69;93759.16;4976203;28;20038;-76
2022/05/18 04:14:54;;;;;;;4.47;3.40;;;;;;;15.97;60.04;93760.13;4974085;28;20018;-75
2022/05/18 04:17:25;;;;;;;6.82;4.15;;;;;;;15.94;61.20;93761.56;4974260;28;20137;-77
2022/05/18 04:19:51;;;;;;;5.95;3.63;;;;;;;15.96;60.57;93762.03;4975080;28;20046;-76
2022/05/18 04:22:17;;;;;;;6.03;3.70;;;;;;;16.11;60.72;93771.19;4976275;28;20034;-76
2022/05/18 04:24:43;;;;;;;6.65;4.65;;;;;;;15.88;61.05;93742.31;4974173;28;20479;-76
2022/05/18 04:27:10;;;;;;;8.18;5.68;;;;;;;16.10;60.43;93773.06;4974651;28;20027;-76
2022/05/18 04:29:36;;;;;;;6.90;4.30;;;;;;;16.07;61.17;93775.69;4974733;28;21219;-77
2022/05/18 04:32:01;;;;;;;7.65;4.75;;;;;;;16.05;61.86;93777.94;4977255;28;20590;-75
2022/05/18 04:34:27;;;;;;;6.45;4.22;;;;;;;15.88;62.02;93754.94;4971773;28;20038;-74
2022/05/18 04:36:52;;;;;;;7.32;5.50;;;;;;;15.99;62.38;93780.09;4973292;28;20038;-76
2022/05/18 04:39:18;;;;;;;7.43;5.53;;;;;;;15.94;62.67;93760.81;4977621;28;20077;-77
2022/05/18 04:41:43;;;;;;;9.23;5.32;;;;;;;15.96;63.27;93770.06;4975136;28;20699;-76
2022/05/18 04:44:09;;;;;;;8.35;4.78;;;;;;;15.97;63.43;93774.31;4971460;28;20562;-76
2022/05/18 04:46:35;;;;;;;8.30;5.07;;;;;;;15.88;63.28;93752.25;4974945;28;20046;-76
2022/05/18 04:49:00;;;;;;;9.63;6.18;;;;;;;15.85;65.28;93779.75;4971859;28;20038;-75
2022/05/18 04:51:26;;;;;;;7.55;5.15;;;;;;;15.94;64.61;93776.91;4976923;28;20034;-77
2022/05/18 04:53:52;;;;;;;6.85;4.60;;;;;;;15.78;65.06;93750.09;4969986;28;20030;-75
2022/05/18 04:56:18;;;;;;;6.28;4.43;;;;;;;15.84;64.44;93762.13;4976755;28;20042;-76
2022/05/18 04:58:43;;;;;;;6.90;5.13;;;;;;;15.89;64.83;93775.25;4973768;28;20933;-76
2022/05/18 05:01:10;;;;;;;9.38;5.35;;;;;;;15.88;64.04;93754.94;4978809;28;20058;-76
2022/05/18 05:03:35;;;;;;;8.75;5.55;;;;;;;16.04;63.22;93774.47;4976062;28;20047;-76
2022/05/18 05:06:03;;;;;;;10.15;5.35;;;;;;;15.94;64.24;93766.94;4993989;28;20065;-75
2022/05/18 05:08:29;;;;;;;11.35;6.90;;;;;;;15.73;64.29;93764.53;4993500;28;20153;-76
2022/05/18 05:10:56;;;;;;;12.32;7.20;;;;;;;15.74;64.88;93762.66;4995455;28;20070;-75
2022/05/18 05:13:21;;;;;;;12.70;6.57;;;;;;;15.75;64.45;93758.81;4994768;28;20048;-76
2022/05/18 05:15:47;;;;;;;13.00;6.28;;;;;;;15.89;63.39;93785.97;4994885;28;20342;-76
2022/05/18 05:18:12;;;;;;;9.38;6.55;;;;;;;15.80;63.73;93766.59;4990346;28;20018;-76
2022/05/18 05:20:39;;;;;;;8.98;6.68;;;;;;;15.72;63.81;93780.97;4998978;28;20026;-76
2022/05/18 05:23:04;;;;;;;9.48;6.15;;;;;;;15.63;64.91;93772.31;4993694;28;20042;-76
2022/05/18 05:25:30;;;;;;;15.05;6.10;;;;;;;15.60;64.58;93767.63;4996765;28;20541;-76
2022/05/18 05:27:55;;;;;;;8.80;5.68;;;;;;;15.64;64.97;93800.69;4996436;28;20165;-76
2022/05/18 05:30:21;;;;;;;11.07;6.65;;;;;;;15.48;65.24;93770.41;4991831;28;20041;-76
2022/05/18 05:32:46;;;;;;;8.52;6.63;;;;;;;15.59;65.22;93798.25;4972958;28;20085;-75
2022/05/18 05:35:12;;;;;;;9.93;6.50;;;;;;;15.48;65.83;93797.19;4973075;28;20591;-76
2022/05/18 05:37:38;;;;;;;9.00;6.13;;;;;;;15.51;66.15;93793.81;4969675;28;20301;-76
2022/05/18 05:40:06;;;;;;;10.75;6.47;;;;;;;15.49;66.27;93801.44;4971258;28;21164;-76
2022/05/18 05:42:31;;;;;;;8.57;5.43;;;;;;;15.27;66.27;93782.09;4969620;28;20038;-75
2022/05/18 05:44:57;;;;;;;18.25;6.38;;;;;;;15.28;66.67;93780.97;4971282;28;20433;-76
2022/05/18 05:47:22;;;;;;;9.73;6.28;;;;;;;15.43;66.86;93808.94;4966205;28;20080;-76
2022/05/18 05:49:47;;;;;;;9.48;6.28;;;;;;;15.45;66.39;93804.81;4970026;28;20038;-75
2022/05/18 05:52:13;;;;;;;10.77;5.65;;;;;;;15.51;66.96;93823.31;4969691;28;20724;-76
2022/05/18 05:54:38;;;;;;;8.85;6.25;;;;;;;15.68;66.71;93829.16;4968014;28;20470;-77
2022/05/18 05:57:04;;;;;;;9.35;5.53;;;;;;;15.64;66.94;93811.41;4970590;28;20022;-77
2022/05/18 05:59:36;;;;;;;8.75;5.85;;;;;;;15.75;66.99;93839.25;4971349;28;20691;-76
2022/05/18 06:02:04;;;;;;;7.40;4.32;;;;;;;15.63;67.58;93809.84;4975240;28;20065;-76
2022/05/18 06:04:34;;;;;;;8.57;5.55;;;;;;;15.72;68.09;93839.97;4972406;28;20032;-76
2022/05/18 06:07:00;;;;;;;8.80;4.78;;;;;;;14.45;67.63;93637.19;4974175;28;20061;-75
2022/05/18 06:09:26;;;;;;;6.30;4.22;;;;;;;15.66;68.31;93839.44;4968125;28;20506;-76
2022/05/18 06:11:51;;;;;;;5.95;4.22;;;;;;;15.62;68.67;93848.50;4970813;28;20057;-77
2022/05/18 06:14:18;;;;;;;6.72;3.75;;;;;;;15.61;68.54;93854.97;4971508;28;20053;-77
2022/05/18 06:16:46;;;;;;;5.30;3.88;;;;;;;15.42;68.91;93837.63;4971469;28;20027;-76
2022/05/18 06:19:15;;;;;;;6.47;3.60;;;;;;;15.44;69.27;93856.88;4971796;28;20026;-76
2022/05/18 06:21:41;;;;;;;7.78;3.65;;;;;;;15.23;70.03;93858.91;4971365;28;20036;-77
2022/05/18 06:24:06;;;;;;;5.00;3.50;;;;;;;15.25;70.23;93853.22;4973189;28;20030;-76
2022/05/18 06:26:32;;;;;;;4.32;3.40;;;;;;;14.95;70.94;93828.66;4973575;28;20023;-76
2022/05/18 06:28:57;;;;;;;6.75;3.92;;;;;;;14.78;71.71;93826.25;4964523;28;20387;-76
2022/05/18 06:31:23;;;;;;;6.63;4.45;;;;;;;14.93;71.45;93865.69;4974690;28;20351;-76
2022/05/18 06:33:49;;;;;;;7.97;3.65;;;;;;;14.70;73.06;93854.72;4966774;28;21200;-75
2022/05/18 06:36:14;;;;;;;6.05;4.40;;;;;;;14.47;72.78;93851.69;4975208;28;20557;-76
2022/05/18 06:38:40;;;;;;;6.10;4.82;;;;;;;14.46;72.96;93865.41;4973438;28;20088;-77
2022/05/18 06:41:24;;;;;;;8.75;4.28;;;;;;;14.46;73.79;93862.75;4968673;28;20030;-76
2022/05/18 06:43:54;;;;;;;5.65;4.55;;;;;;;14.57;73.01;93864.66;4971332;28;21272;-76
2022/05/18 06:46:21;;;;;;;6.90;4.82;;;;;;;14.63;72.85;93859.06;4969529;28;20046;-76
2022/05/18 06:48:46;;;;;;;7.95;4.18;;;;;;;14.61;72.28;93838.00;4970846;28;20101;-75
2022/05/18 06:51:13;;;;;;;7.55;5.18;;;;;;;14.83;72.05;93863.50;4972151;28;20026;-76
2022/05/18 06:53:39;;;;;;;7.68;5.10;;;;;;;14.77;71.68;93841.53;4971108;28;20141;-76
2022/05/18 06:56:04;;;;;;;6.22;5.28;;;;;;;14.91;71.31;93860.69;4966396;28;20034;-75
2022/05/18 06:58:30;;;;;;;8.57;5.53;;;;;;;14.93;70.43;93869.16;4956048;28;20034;-76
2022/05/18 07:00:56;;;;;;;7.63;5.38;;;;;;;14.84;71.08;93860.47;4966988;28;20289;-77
2022/05/18 07:03:21;;;;;;;9.40;5.72;;;;;;;14.81;71.11;93876.47;4968356;28;20085;-76
2022/05/18 07:05:46;;;;;;;7.13;5.10;;;;;;;14.62;71.19;93850.25;4963290;28;20026;-76
2022/05/18 07:08:12;;;;;;;9.30;6.53;;;;;;;14.72;71.30;93860.50;4969722;28;20065;-76
2022/05/18 07:10:38;;;;;;;7.05;5.28;;;;;;;14.84;71.65;93881.91;4959548;28;20598;-75
2022/05/18 07:13:04;;;;;;;7.18;5.07;;;;;;;14.94;71.26;93880.66;4969769;28;20061;-76
2022/05/18 07:15:29;;;;;;;10.27;5.85;;;;;;;14.92;71.20;93861.47;4962799;28;20566;-75
2022/05/18 07:17:55;;;;;;;7.82;5.95;;;;;;;15.04;71.29;93864.91;4967301;28;20306;-76
2022/05/18 07:20:20;;;;;;;6.88;4.93;;;;;;;15.19;69.97;93890.19;4967435;28;20046;-76
2022/05/18 07:22:46;;;;;;;8.60;5.93;;;;;;;15.19;70.56;93878.69;4969040;28;20705;-77
2022/05/18 07:25:11;;;;;;;8.02;5.82;;;;;;;15.13;69.74;93867.44;4981327;28;20030;-76
2022/05/18 07:27:37;;;;;;;7.43;5.68;;;;;;;15.32;70.35;93891.72;4989553;28;20083;-77
2022/05/18 07:30:04;;;;;;;7.30;5.25;;;;;;;15.45;69.89;93897.81;4986800;28;20465;-76
2022/05/18 07:32:30;;;;;;;7.40;5.50;;;;;;;15.37;69.16;93880.75;4985745;28;20021;-76
2022/05/18 07:34:55;;;;;;;8.07;4.72;;;;;;;15.51;68.78;93893.00;4987203;28;20069;-76
2022/05/18 07:37:22;;;;;;;8.15;5.78;;;;;;;15.71;68.85;93897.38;4989311;28;20344;-76
2022/05/18 07:39:47;;;;;;;8.20;4.65;;;;;;;15.78;68.62;93905.63;4986955;28;20041;-77
2022/05/18 07:42:13;;;;;;;7.30;4.93;;;;;;;15.72;67.12;93882.84;4982355;28;20022;-77
2022/05/18 07:44:39;;;;;;;8.50;6.20;;;;;;;15.81;66.85;93899.56;4990642;28;20498;-76
2022/05/18 07:47:08;;;;;;;8.60;5.40;;;;;;;15.85;66.61;93908.47;4972127;28;20178;-76
2022/05/18 07:49:39;;;;;;;7.05;5.10;;;;;;;15.87;66.63;93900.88;4976715;28;20556;-75
2022/05/18 07:52:05;;;;;;;7.82;5.25;;;;;;;15.86;67.35;93899.31;4983017;28;20034;-78
2022/05/18 07:54:30;;;;;;;7.45;5.70;;;;;;;15.92;67.56;93903.31;4986788;28;20096;-76
2022/05/18 07:56:56;;;;;;;9.52;6.13;;;;;;;15.84;66.74;93899.66;4981204;28;20041;-76
2022/05/18 07:59:21;;;;;;;7.32;5.10;;;;;;;15.80;66.69;93895.31;4985406;28;20022;-76
2022/05/18 08:01:46;;;;;;;7.32;4.65;;;;;;;15.95;66.02;93907.97;4990558;28;20034;-76
2022/05/18 08:04:12;;;;;;;7.03;4.80;;;;;;;15.95;65.50;93902.63;4982074;28;20030;-76
2022/05/18 08:06:38;;;;;;;7.35;5.13;;;;;;;15.92;64.66;93897.94;4987313;28;20038;-77
2022/05/18 08:09:04;;;;;;;8.20;6.40;;;;;;;16.15;65.24;93920.38;4986048;28;20049;-76
2022/05/18 08:16:57;;;;;;;5.93;4.95;;;;;;;16.21;65.20;93913.63;4991799;28;20077;-75
2022/05/18 08:19:23;;;;;;;6.75;5.10;;;;;;;16.25;65.40;93922.56;4983709;28;20545;-76
2022/05/18 08:21:48;;;;;;;6.85;4.80;;;;;;;16.32;64.63;93922.00;4987008;28;20529;-76
2022/05/18 08:24:14;;;;;;;7.07;5.03;;;;;;;16.29;64.22;93911.91;4990491;28;20108;-76
2022/05/18 08:26:42;;;;;;;8.85;5.68;;;;;;;16.42;64.11;93931.44;4984447;28;20026;-75
2022/05/18 08:29:08;;;;;;;5.95;5.35;;;;;;;16.38;64.22;93935.94;4982948;28;20654;-76
2022/05/18 08:31:34;;;;;;;7.35;4.78;;;;;;;16.20;63.78;93920.13;4992478;28;20034;-77
2022/05/18 08:34:00;;;;;;;6.50;4.65;;;;;;;16.30;63.88;93925.00;5005761;28;20506;-76
2022/05/18 08:36:26;;;;;;;5.53;3.70;;;;;;;16.18;62.91;93914.31;4983264;28;20038;-77
2022/05/18 08:38:54;;;;;;;4.68;4.00;;;;;;;16.12;64.03;93913.03;4992683;28;20022;-76
2022/05/18 08:41:34;;;;;;;4.60;4.00;;;;;;;16.25;63.99;93927.91;4987383;28;20033;-76
2022/05/18 08:44:06;;;;;;;7.07;4.65;;;;;;;16.33;63.74;93928.13;4990149;28;20894;-76
2022/05/18 08:47:14;;;;;;;6.78;4.32;;;;;;;16.33;63.13;93922.78;4987457;28;20165;-76
2022/05/18 08:49:39;;;;;;;4.15;3.75;;;;;;;16.33;62.93;93921.63;4956033;28;20785;-76
2022/05/18 08:52:42;;;;;;;5.57;4.18;;;;;;;16.33;62.62;93927.00;4946984;28;20035;-75
2022/05/18 08:55:18;;;;;;;6.10;3.90;;;;;;;16.26;64.48;93917.97;4971029;28;20431;-76
2022/05/18 08:57:48;;;;;;;7.57;4.70;;;;;;;16.44;64.77;93915.75;4988165;28;20034;-76
2022/05/18 09:00:21;;;;;;;7.97;4.55;;;;;;;16.62;62.87;93914.28;4991227;28;20121;-75
2022/05/18 09:02:59;;;;;;;7.20;4.10;;;;;;;16.62;61.75;93906.22;4987551;28;20018;-77
2022/05/18 09:05:42;;;;;;;5.80;4.03;;;;;;;16.60;61.39;93908.47;4989235;28;20034;-77
2022/05/18 09:08:19;;;;;;;5.53;4.65;;;;;;;16.60;61.34;93905.78;4990723;28;20351;-76
2022/05/18 09:10:53;;;;;;;5.40;4.20;;;;;;;16.62;62.11;93908.91;4985473;28;20529;-76
2022/05/18 09:13:20;;;;;;;6.93;3.95;;;;;;;16.62;61.42;93888.19;4990287;28;20037;-75
2022/05/18 09:16:04;;;;;;;6.00;4.45;;;;;;;16.70;62.41;93900.66;4990708;28;20525;-76
2022/05/18 09:18:56;;;;;;;6.57;4.25;;;;;;;16.80;61.99;93899.34;4990260;28;20627;-77
2022/05/18 09:21:57;;;;;;;6.15;3.80;;;;;;;16.92;62.22;93895.75;4992564;28;20045;-76
2022/05/18 09:24:49;;;;;;;6.90;4.03;;;;;;;16.89;63.45;93875.75;4966906;28;20056;-76
2022/05/18 09:27:34;;;;;;;5.30;3.47;;;;;;;16.95;62.09;93879.72;4988934;28;20057;-74
2022/05/18 09:30:14;;;;;;;4.18;3.42;;;;;;;17.14;60.93;93887.84;5003397;28;20108;-74
2022/05/18 09:32:42;;;;;;;5.05;3.72;;;;;;;17.09;59.71;93884.63;4988295;28;20187;-76
2022/05/18 09:35:32;;;;;;;4.30;3.38;;;;;;;17.15;60.19;93878.66;4992375;28;20099;-74
2022/05/18 09:38:10;;;;;;;5.43;4.10;;;;;;;17.21;60.51;93883.75;4994470;28;20061;-74
2022/05/18 09:40:43;;;;;;;4.80;3.63;;;;;;;17.20;58.39;93884.88;4986737;28;20085;-76
2022/05/18 09:43:15;;;;;;;6.43;3.72;;;;;;;17.22;59.42;93882.59;4979619;28;20275;-75
2022/05/18 09:45:43;;;;;;;4.82;3.42;;;;;;;17.22;58.19;93869.16;4967066;28;20069;-75
2022/05/18 09:48:16;;;;;;;4.60;3.80;;;;;;;17.14;57.69;93860.19;4975960;28;20060;-74
2022/05/18 09:50:44;;;;;;;4.90;3.38;;;;;;;17.22;57.43;93858.41;4983254;28;20416;-74
2022/05/18 09:53:10;;;;;;;4.60;3.25;;;;;;;17.32;58.07;93868.59;4991215;28;20061;-74
2022/05/18 09:55:36;;;;;;;4.35;3.50;;;;;;;17.27;56.30;93852.75;4970681;28;20038;-75
2022/05/18 09:58:14;;;;;;;3.05;2.60;;;;;;;17.45;57.17;93864.66;4970896;28;20049;-75
2022/05/18 10:00:40;;;;;;;3.55;2.83;;;;;;;17.50;57.97;93875.88;4963762;28;20480;-76
2022/05/18 10:08:58;;;;;;;3.17;2.88;;;;;;;17.36;56.11;93893.63;4955565;28;20073;-75
2022/05/18 10:11:32;;;;;;;3.67;2.97;;;;;;;17.13;54.75;93883.59;4969457;28;20151;-75
2022/05/18 10:14:07;;;;;;;3.95;2.78;;;;;;;17.09;54.81;93912.28;4960784;28;20517;-76
2022/05/18 10:16:41;;;;;;;4.50;3.17;;;;;;;17.04;55.57;93904.47;4968203;28;20053;-74
2022/05/18 10:19:16;;;;;;;3.97;2.78;;;;;;;17.02;55.63;93905.94;4961554;28;20168;-75
2022/05/18 10:21:51;;;;;;;3.85;2.80;;;;;;;16.73;55.43;93910.69;4961456;28;20157;-74
2022/05/18 10:24:25;;;;;;;;;;;;;;;16.65;54.78;93913.56;4963607;28;20314;-73
2022/05/18 10:27:12;;;;;;;3.30;2.65;;;;;;;16.59;55.76;93914.94;4969620;28;19920;-73
2022/05/18 10:29:38;;;;;;;3.55;2.40;;;;;;;16.34;56.43;93898.25;4985454;28;20087;-75
2022/05/18 10:32:23;;;;;;;4.63;2.95;;;;;;;16.29;55.67;93917.25;4986850;28;20057;-75
2022/05/18 10:34:51;;;;;;;2.83;2.42;;;;;;;16.26;56.00;93929.47;4992359;28;20042;-73
2022/05/18 10:37:36;;;;;;;3.25;2.60;;;;;;;16.19;56.80;93923.16;4983628;28;20100;-74
2022/05/18 10:40:09;;;;;;;4.87;3.10;;;;;;;16.24;57.36;93937.09;4987770;28;20113;-75
2022/05/18 10:42:53;;;;;;;4.63;3.05;;;;;;;16.25;57.46;93965.50;4989485;28;20367;-74
2022/05/18 10:45:39;;;;;;;6.55;4.10;;;;;;;16.25;58.36;93980.81;4983248;28;20048;-74
2022/05/18 10:48:18;;;;;;;2.67;1.92;;;;;;;15.93;58.86;93985.34;4989686;28;20394;-75
2022/05/18 10:50:45;;;;;;;2.63;1.52;;;;;;;15.62;59.63;93963.78;4972367;28;20014;-75
2022/05/18 10:53:13;;;;;;;4.43;2.28;;;;;;;15.61;60.86;93989.81;4988771;28;20048;-74
2022/05/18 10:55:52;;;;;;;6.55;3.53;;;;;;;15.37;61.22;93982.56;4982161;28;20046;-73
2022/05/18 10:58:30;;;;;;;10.30;4.70;;;;;;;15.53;62.35;93998.00;4990074;28;20384;-74
2022/05/18 11:01:04;;;;;;;7.50;3.83;;;;;;;15.46;66.54;93999.34;4995986;28;20026;-74
2022/05/18 11:03:54;;;;;;;13.73;6.97;;;;;;;15.78;66.11;94000.25;4987767;28;20044;-74
2022/05/18 11:06:21;;;;;;;16.48;9.45;;;;;;;15.92;66.14;94015.97;4988460;28;20038;-74
2022/05/18 11:08:48;;;;;;;43.22;17.30;;;;;;;16.08;64.93;94019.47;4991375;28;20028;-74
2022/05/18 11:11:41;;;;;;;12.45;7.55;;;;;;;15.95;64.57;94019.84;4982967;28;20057;-74
2022/05/18 11:14:12;;;;;;;9.63;5.82;;;;;;;16.14;65.14;94031.50;4980220;28;20066;-74
2022/05/18 11:16:47;;;;;;;8.15;5.38;;;;;;;16.33;64.80;94030.13;4964677;28;20031;-74
2022/05/18 11:19:19;;;;;;;8.45;4.03;;;;;;;16.29;63.64;94030.75;4963851;28;20126;-74
2022/05/18 11:22:05;;;;;;;3.90;2.33;;;;;;;16.19;62.00;94031.25;4967473;28;20129;-74
2022/05/18 11:25:02;;;;;;;7.00;1.85;;;;;;;15.88;61.39;94017.78;4970473;28;20560;-74
2022/05/18 11:27:36;;;;;;;2.45;1.75;;;;;;;15.56;61.19;94030.25;4967408;28;20049;-74
2022/05/18 11:30:11;;;;;;;3.22;1.42;;;;;;;15.57;62.46;94036.38;4959039;28;20109;-73
2022/05/18 11:32:45;;;;;;;1.70;1.40;;;;;;;15.43;63.73;94031.38;4961322;28;20026;-77
2022/05/18 11:35:42;;;;;;;1.02;0.93;;;;;;;15.58;62.98;94022.66;4974575;28;20070;-76
2022/05/18 11:38:32;;;;;;;1.85;1.30;;;;;;;15.66;62.57;94039.72;4969564;28;20049;-75
2022/05/18 11:41:22;;;;;;;2.10;1.10;;;;;;;15.78;62.18;94043.16;4960242;28;20937;-75
2022/05/18 11:43:48;;;;;;;2.63;1.40;;;;;;;15.93;62.00;94051.63;4975618;28;20038;-76
2022/05/18 11:46:13;;;;;;;3.58;1.20;;;;;;;15.98;61.97;94048.69;4959570;28;21802;-76
2022/05/18 11:48:41;;;;;;;0.95;0.90;;;;;;;15.86;61.38;94055.66;4982045;28;20073;-75
2022/05/18 11:51:28;;;;;;;1.02;0.90;;;;;;;16.17;60.99;94059.56;4977972;28;20021;-75
2022/05/18 11:54:05;;;;;;;1.95;1.00;;;;;;;15.78;61.26;94061.94;4976725;28;20460;-74
2022/05/18 11:56:56;;;;;;;1.52;0.90;;;;;;;15.93;61.36;94067.72;4953939;28;20070;-76
2022/05/18 11:59:52;;;;;;;1.38;0.77;;;;;;;15.56;60.96;94065.09;4974348;28;20369;-76